Time;durP1;ratioP1;P1;durP2;ratioP2;P2;SDS_P1;SDS_P2;PMS_P1;PMS_P2;Temp;Humidity;BMP_temperature;BMP_pressure;BME280_temperature;BME280_humidity;BME280_pressure;Samples;Min_cycle;Max_cycle;Signal;HPM_P1;HPM_P2
2024/02/18 00:02:24;;;;;;;10.40;0.90;;;;;;;6.21;78.24;102022.91;108619;1268;25262;-85
2024/02/18 00:05:16;;;;;;;8.40;1.20;;;;;;;6.18;77.73;102025.31;108603;1268;22595;-87
2024/02/18 00:08:12;;;;;;;7.50;1.10;;;;;;;6.16;77.60;102026.91;108615;1268;25262;-87
2024/02/18 00:11:03;;;;;;;7.50;1.00;;;;;;;6.13;77.86;102030.34;108212;1269;25275;-85
2024/02/18 00:13:55;;;;;;;7.60;1.10;;;;;;;6.11;77.56;102035.11;108191;1269;22633;-85
2024/02/18 00:16:46;;;;;;;9.50;1.70;;;;;;;6.09;77.80;102035.83;108341;1268;25380;-86
2024/02/18 00:19:38;;;;;;;9.40;1.40;;;;;;;6.09;77.79;102038.20;108682;1268;26239;-86
2024/02/18 00:22:31;;;;;;;7.40;1.40;;;;;;;6.08;77.64;102035.90;108627;1268;22987;-86
2024/02/18 00:25:24;;;;;;;5.70;1.00;;;;;;;6.07;77.44;102044.71;108675;1268;22554;-86
2024/02/18 00:28:17;;;;;;;5.40;0.80;;;;;;;6.05;77.46;102044.80;108662;1268;22985;-86
2024/02/18 00:31:09;;;;;;;8.80;1.20;;;;;;;6.06;77.43;102046.61;108373;1268;22684;-88
2024/02/18 00:34:01;;;;;;;8.40;1.00;;;;;;;6.03;77.18;102044.82;108628;1268;22523;-86
2024/02/18 00:36:53;;;;;;;6.50;1.10;;;;;;;6.01;77.17;102046.33;108617;1268;25322;-85
2024/02/18 00:39:45;;;;;;;5.40;0.80;;;;;;;5.99;77.15;102049.98;108468;1268;22521;-85
2024/02/18 00:42:36;;;;;;;5.20;0.80;;;;;;;5.96;76.88;102054.67;108666;1268;22532;-87
2024/02/18 00:45:29;;;;;;;6.00;0.70;;;;;;;5.92;76.96;102053.19;108633;1246;24231;-87
2024/02/18 00:48:20;;;;;;;7.50;1.00;;;;;;;5.90;77.13;102054.63;108722;1268;22557;-86
2024/02/18 00:51:12;;;;;;;5.50;0.80;;;;;;;5.89;76.79;102061.04;108633;1268;23768;-86
2024/02/18 00:54:05;;;;;;;8.20;0.90;;;;;;;5.86;76.45;102062.48;108369;1267;23511;-86
2024/02/18 00:56:58;;;;;;;4.10;0.80;;;;;;;5.83;76.82;102063.50;108605;1266;24421;-86
2024/02/18 00:59:50;;;;;;;6.30;0.90;;;;;;;5.82;77.16;102062.54;108721;1268;25393;-86
2024/02/18 01:02:43;;;;;;;5.60;0.80;;;;;;;5.81;77.08;102061.67;108518;1268;25237;-87
2024/02/18 01:05:36;;;;;;;6.50;0.90;;;;;;;5.80;77.30;102061.77;108541;1268;25380;-85
2024/02/18 01:08:28;;;;;;;6.30;0.60;;;;;;;5.78;76.17;102062.88;108637;1268;24349;-84
2024/02/18 01:11:20;;;;;;;4.70;0.70;;;;;;;5.76;75.43;102057.90;108639;1268;22542;-84
2024/02/18 01:14:11;;;;;;;10.20;0.90;;;;;;;5.71;75.61;102061.41;108648;1268;22563;-84
2024/02/18 01:17:03;;;;;;;6.30;0.80;;;;;;;5.67;74.91;102051.91;108764;1268;22685;-85
2024/02/18 01:19:57;;;;;;;5.30;0.60;;;;;;;5.66;75.47;102049.93;108536;1269;22578;-85
2024/02/18 01:22:49;;;;;;;4.20;0.70;;;;;;;5.64;75.11;102059.05;108447;1269;23413;-85
2024/02/18 01:25:42;;;;;;;2.80;0.50;;;;;;;5.62;75.59;102059.14;108452;1269;22735;-84
2024/02/18 01:28:34;;;;;;;8.70;1.40;;;;;;;5.60;75.42;102060.25;108483;1269;22527;-85
2024/02/18 01:31:28;;;;;;;6.00;0.60;;;;;;;5.59;75.62;102057.80;108294;1269;25393;-85
2024/02/18 01:34:20;;;;;;;3.70;0.70;;;;;;;5.58;75.26;102063.44;108558;1269;25427;-85
2024/02/18 01:37:12;;;;;;;8.10;1.10;;;;;;;5.58;75.18;102063.52;108484;1269;22614;-85
2024/02/18 01:40:04;;;;;;;6.60;0.70;;;;;;;5.59;74.99;102062.39;108415;1268;24191;-86
2024/02/18 01:42:56;;;;;;;6.50;0.80;;;;;;;5.58;74.46;102068.11;108934;1268;24366;-85
2024/02/18 01:45:50;;;;;;;7.80;0.80;;;;;;;5.58;73.99;102062.33;109219;1263;25257;-84
2024/02/18 01:48:41;;;;;;;6.00;0.80;;;;;;;5.55;74.05;102060.83;109016;1268;24199;-86
2024/02/18 01:51:33;;;;;;;8.40;1.00;;;;;;;5.53;74.23;102064.15;108808;1268;22523;-85
2024/02/18 01:54:31;;;;;;;7.00;0.90;;;;;;;5.55;74.88;102064.08;108518;1268;25274;-85
2024/02/18 01:57:27;;;;;;;6.00;0.80;;;;;;;5.57;74.59;102066.28;108704;1268;25240;-85
2024/02/18 02:00:22;;;;;;;9.90;1.80;;;;;;;5.56;75.31;102064.47;108781;1268;25455;-86
2024/02/18 02:03:13;;;;;;;11.20;1.40;;;;;;;5.56;76.39;102062.41;108260;1268;22718;-85
2024/02/18 02:06:07;;;;;;;13.00;2.10;;;;;;;5.55;76.97;102068.90;108781;1268;22640;-85
2024/02/18 02:08:59;;;;;;;12.60;2.40;;;;;;;5.55;77.30;102075.55;108567;1268;22697;-85
2024/02/18 02:11:51;;;;;;;11.40;1.70;;;;;;;5.53;77.60;102072.23;108606;1268;22579;-85
2024/02/18 02:14:42;;;;;;;15.80;2.20;;;;;;;5.51;77.61;102074.30;108741;1268;22540;-85
2024/02/18 02:17:34;;;;;;;33.80;12.30;;;;;;;5.52;77.91;102066.86;108683;1268;22550;-87
2024/02/18 02:20:26;;;;;;;17.80;3.20;;;;;;;5.50;77.98;102068.20;108692;1266;22732;-86
2024/02/18 02:23:17;;;;;;;12.70;2.80;;;;;;;5.48;78.12;102064.41;108584;1268;23887;-85
2024/02/18 02:26:13;;;;;;;59.50;24.90;;;;;;;5.46;78.21;102065.45;108714;1257;22770;-85
2024/02/18 02:29:15;;;;;;;51.30;22.00;;;;;;;5.45;78.24;102068.15;108566;1269;25252;-85
2024/02/18 02:32:07;;;;;;;27.90;11.00;;;;;;;5.44;78.19;102067.44;108258;1269;24424;-85
2024/02/18 02:34:58;;;;;;;11.40;2.90;;;;;;;5.43;78.31;102069.09;108499;1269;22659;-84
2024/02/18 02:37:52;;;;;;;11.30;2.50;;;;;;;5.42;78.23;102064.11;108385;1269;22621;-85
2024/02/18 02:40:44;;;;;;;12.00;3.10;;;;;;;5.44;78.16;102059.11;108234;1269;22636;-85
2024/02/18 02:43:36;;;;;;;8.80;1.80;;;;;;;5.41;78.01;102062.91;108672;1268;22639;-85
2024/02/18 02:46:29;;;;;;;14.70;4.60;;;;;;;5.37;77.97;102070.05;108522;1268;22884;-85
2024/02/18 02:49:20;;;;;;;15.50;2.90;;;;;;;5.35;78.18;102068.23;108592;1268;22572;-85
2024/02/18 02:52:13;;;;;;;10.10;2.90;;;;;;;5.33;77.99;102066.02;108337;1268;22644;-88
2024/02/18 02:55:07;;;;;;;14.50;3.20;;;;;;;5.31;78.17;102069.84;108740;1268;27926;-85
2024/02/18 02:57:59;;;;;;;6.80;2.00;;;;;;;5.32;78.37;102075.29;108760;1268;25394;-87
2024/02/18 03:00:53;;;;;;;4.80;1.30;;;;;;;5.34;78.40;102078.62;108412;1268;25221;-86
2024/02/18 03:03:45;;;;;;;18.30;6.70;;;;;;;5.32;78.48;102076.63;108645;1268;22558;-85
2024/02/18 03:06:37;;;;;;;12.50;3.00;;;;;;;5.32;78.40;102078.14;108584;1266;25234;-85
2024/02/18 03:09:28;;;;;;;6.90;1.40;;;;;;;5.29;78.38;102077.20;108339;1266;23896;-84
2024/02/18 03:12:20;;;;;;;12.60;3.50;;;;;;;5.27;78.31;102083.30;108820;1253;22640;-85
2024/02/18 03:15:11;;;;;;;7.90;2.30;;;;;;;5.24;78.62;102088.91;108723;1268;22653;-85
2024/02/18 03:18:04;;;;;;;6.60;1.00;;;;;;;5.25;78.65;102092.00;108468;1268;24250;-85
2024/02/18 03:20:55;;;;;;;8.50;1.50;;;;;;;5.22;78.69;102096.75;108766;1268;22523;-85
2024/02/18 03:23:48;;;;;;;9.20;1.30;;;;;;;5.22;78.98;102092.00;108404;1268;25259;-85
2024/02/18 03:26:40;;;;;;;8.90;1.80;;;;;;;5.24;79.15;102095.64;108566;1268;22588;-85
2024/02/18 03:29:33;;;;;;;8.60;1.30;;;;;;;5.25;79.01;102097.30;108590;1268;25265;-85
2024/02/18 03:32:25;;;;;;;9.50;1.20;;;;;;;5.25;79.13;102095.80;108369;1268;22538;-85
2024/02/18 03:35:18;;;;;;;3.70;0.70;;;;;;;5.25;78.80;102096.98;108548;1268;24136;-85
2024/02/18 03:38:10;;;;;;;4.90;1.00;;;;;;;5.22;78.62;102099.92;108539;1268;22543;-85
2024/02/18 03:41:05;;;;;;;6.90;0.80;;;;;;;5.19;78.76;102101.82;108457;1269;23233;-85
2024/02/18 03:43:58;;;;;;;4.30;0.80;;;;;;;5.16;78.69;102103.02;108634;1269;22565;-85
2024/02/18 03:46:50;;;;;;;6.80;0.80;;;;;;;5.12;78.67;102098.73;108715;1268;22585;-85
2024/02/18 03:49:43;;;;;;;7.30;0.80;;;;;;;5.11;78.57;102098.27;108370;1269;25255;-85
2024/02/18 03:52:35;;;;;;;4.90;0.80;;;;;;;5.09;78.74;102093.13;108154;1268;22662;-85
2024/02/18 03:55:29;;;;;;;8.20;1.20;;;;;;;5.08;78.44;102093.84;108323;1266;22559;-85
2024/02/18 03:58:21;;;;;;;5.80;0.90;;;;;;;5.05;78.43;102094.87;108573;1268;22522;-86
2024/02/18 04:01:13;;;;;;;3.90;0.60;;;;;;;5.04;78.60;102098.59;108461;1268;22573;-85
2024/02/18 04:04:06;;;;;;;5.30;0.90;;;;;;;5.05;78.44;102099.77;108943;1268;23052;-88
2024/02/18 04:06:58;;;;;;;6.00;0.90;;;;;;;5.03;78.59;102097.23;108583;1268;22574;-85
2024/02/18 04:09:51;;;;;;;6.10;1.00;;;;;;;5.02;78.80;102097.88;108672;1268;22564;-85
2024/02/18 04:12:45;;;;;;;7.50;0.70;;;;;;;5.02;78.78;102101.20;108592;1268;25381;-85
2024/02/18 04:15:36;;;;;;;10.20;0.80;;;;;;;4.99;78.57;102103.42;108681;1268;22566;-87
2024/02/18 04:18:29;;;;;;;4.20;0.90;;;;;;;4.97;79.02;102101.98;108688;1268;22566;-85
2024/02/18 04:21:21;;;;;;;4.10;0.80;;;;;;;4.97;78.81;102103.09;108515;1267;22567;-85
2024/02/18 04:24:13;;;;;;;6.90;0.80;;;;;;;4.95;79.02;102101.98;108373;1269;23138;-85
2024/02/18 04:27:10;;;;;;;7.00;1.00;;;;;;;4.95;78.96;102101.59;108541;1269;22579;-86
2024/02/18 04:30:01;;;;;;;5.20;1.30;;;;;;;4.94;79.03;102104.84;108492;1263;22581;-86
2024/02/18 04:32:54;;;;;;;6.40;1.10;;;;;;;4.96;79.20;102101.44;108394;1269;23360;-85
2024/02/18 04:35:46;;;;;;;7.60;0.80;;;;;;;4.98;79.12;102101.45;108586;1268;24205;-85
2024/02/18 04:38:41;;;;;;;6.20;0.90;;;;;;;4.93;78.88;102098.59;108489;1268;22620;-85
2024/02/18 04:41:33;;;;;;;7.00;0.80;;;;;;;4.90;79.18;102091.64;108646;1268;24382;-85
2024/02/18 04:44:27;;;;;;;7.20;0.90;;;;;;;4.89;78.97;102085.94;108715;1268;22560;-87
2024/02/18 04:47:18;;;;;;;3.60;0.80;;;;;;;4.88;79.25;102084.60;108398;1268;24311;-85
2024/02/18 04:50:11;;;;;;;6.60;0.90;;;;;;;4.86;78.92;102084.76;108676;1247;25484;-87
2024/02/18 04:53:04;;;;;;;6.00;0.80;;;;;;;4.85;78.93;102081.51;108607;1268;25248;-85
2024/02/18 04:55:55;;;;;;;8.40;0.80;;;;;;;4.86;79.16;102082.23;108514;1269;22584;-87
2024/02/18 04:58:48;;;;;;;9.20;1.00;;;;;;;4.85;79.10;102077.73;108636;1269;25269;-87
2024/02/18 05:01:41;;;;;;;5.10;1.00;;;;;;;4.84;78.81;102078.36;108729;1268;25300;-86
2024/02/18 05:04:34;;;;;;;5.80;1.10;;;;;;;4.81;78.92;102081.91;108691;1269;23896;-85
2024/02/18 05:07:26;;;;;;;4.70;0.90;;;;;;;4.78;78.88;102080.65;108704;1269;24875;-85
2024/02/18 05:10:18;;;;;;;10.00;1.00;;;;;;;4.75;79.07;102073.61;108671;1269;22541;-85
2024/02/18 05:13:10;;;;;;;4.80;0.80;;;;;;;4.74;78.98;102071.39;108800;1269;23964;-86
2024/02/18 05:16:02;;;;;;;5.00;1.00;;;;;;;4.73;79.15;102072.11;109082;1269;25593;-85
2024/02/18 05:18:54;;;;;;;7.00;0.90;;;;;;;4.72;79.05;102070.84;109093;1268;25221;-85
2024/02/18 05:21:45;;;;;;;6.90;0.80;;;;;;;4.71;79.36;102064.77;109366;1268;25404;-86
2024/02/18 05:24:38;;;;;;;5.30;0.80;;;;;;;4.72;79.24;102066.80;109402;1264;24184;-86
2024/02/18 05:27:32;;;;;;;5.00;0.80;;;;;;;4.70;79.10;102072.27;109239;1268;23259;-87
2024/02/18 05:30:24;;;;;;;5.50;1.20;;;;;;;4.67;79.55;102076.77;109349;1268;25278;-87
2024/02/18 05:33:18;;;;;;;6.60;1.00;;;;;;;4.65;79.64;102079.21;109164;1268;23371;-85
2024/02/18 05:36:09;;;;;;;5.00;1.10;;;;;;;4.67;79.86;102085.54;109323;1263;22567;-85
2024/02/18 05:39:02;;;;;;;6.30;1.10;;;;;;;4.67;79.87;102087.20;109264;1268;22553;-86
2024/02/18 05:41:53;;;;;;;4.70;1.10;;;;;;;4.68;80.02;102093.92;109258;1268;22520;-87
2024/02/18 05:44:46;;;;;;;5.10;1.10;;;;;;;4.68;79.96;102094.39;109402;1268;22555;-86
2024/02/18 05:47:37;;;;;;;7.00;1.20;;;;;;;4.67;80.03;102104.52;109467;1264;22557;-86
2024/02/18 05:50:29;;;;;;;6.50;1.00;;;;;;;4.65;80.14;102107.28;109151;1261;25362;-85
2024/02/18 05:53:21;;;;;;;6.70;1.00;;;;;;;4.68;80.12;102107.83;109842;1263;22714;-85
2024/02/18 05:56:12;;;;;;;9.40;1.10;;;;;;;4.70;80.03;102110.52;109457;1260;164648;-83
2024/02/18 05:59:05;;;;;;;5.60;0.90;;;;;;;4.66;79.86;102114.23;109730;1268;22562;-84
2024/02/18 06:01:57;;;;;;;5.50;0.70;;;;;;;4.66;79.84;102121.98;109144;1269;23321;-84
2024/02/18 06:04:48;;;;;;;10.20;1.00;;;;;;;4.63;79.52;102117.86;109313;1265;24352;-84
2024/02/18 06:07:40;;;;;;;5.70;0.60;;;;;;;4.59;79.51;102120.86;109382;1269;22556;-84
2024/02/18 06:10:33;;;;;;;5.10;0.40;;;;;;;4.57;79.74;102119.98;109438;1268;22572;-85
2024/02/18 06:13:24;;;;;;;4.90;0.60;;;;;;;4.56;79.56;102120.85;109658;1266;22618;-84
2024/02/18 06:16:16;;;;;;;4.40;0.80;;;;;;;4.53;79.56;102119.73;109527;1263;22601;-84
2024/02/18 06:19:08;;;;;;;3.90;0.80;;;;;;;4.55;79.89;102121.09;109240;1266;22565;-84
2024/02/18 06:22:00;;;;;;;3.80;0.50;;;;;;;4.56;79.32;102117.14;109481;1266;24411;-84
2024/02/18 06:24:52;;;;;;;3.80;0.60;;;;;;;4.50;79.16;102112.23;109704;1266;22573;-84
2024/02/18 06:27:44;;;;;;;3.80;0.80;;;;;;;4.49;79.32;102119.11;109284;1268;22778;-84
2024/02/18 06:30:36;;;;;;;6.30;0.90;;;;;;;4.47;79.10;102125.98;109196;1268;24307;-83
2024/02/18 06:33:27;;;;;;;8.00;0.70;;;;;;;4.48;79.42;102124.95;109354;1268;22527;-83
2024/02/18 06:36:19;;;;;;;6.00;0.90;;;;;;;4.51;79.45;102118.23;109532;1266;22570;-83
2024/02/18 06:39:12;;;;;;;3.70;0.70;;;;;;;4.52;79.64;102119.90;109393;1268;22602;-84
2024/02/18 06:42:05;;;;;;;8.60;1.20;;;;;;;4.53;79.21;102120.21;109731;1266;24346;-85
2024/02/18 06:44:57;;;;;;;13.10;1.30;;;;;;;4.52;79.46;102119.74;109362;1268;22606;-83
2024/02/18 06:47:49;;;;;;;8.90;1.50;;;;;;;4.55;79.72;102120.46;109339;1263;22547;-84
2024/02/18 06:50:41;;;;;;;7.20;1.80;;;;;;;4.58;79.86;102121.89;109557;1268;22618;-84
2024/02/18 06:53:32;;;;;;;4.70;1.10;;;;;;;4.58;79.28;102128.44;109694;1263;23226;-84
2024/02/18 06:56:23;;;;;;;6.10;1.10;;;;;;;4.58;79.52;102133.58;109359;1268;23019;-83
2024/02/18 06:59:15;;;;;;;10.90;2.20;;;;;;;4.59;79.93;102130.02;109334;1261;22943;-84
2024/02/18 07:02:06;;;;;;;12.30;2.30;;;;;;;4.61;79.65;102129.23;109342;1268;22550;-85
2024/02/18 07:04:59;;;;;;;12.30;2.50;;;;;;;4.62;79.55;102121.42;109233;1269;22539;-84
2024/02/18 07:07:51;;;;;;;12.50;2.40;;;;;;;4.63;79.52;102122.21;109566;1269;23475;-85
2024/02/18 07:10:42;;;;;;;14.30;2.90;;;;;;;4.66;79.65;102119.13;109394;1269;25274;-84
2024/02/18 07:13:33;;;;;;;9.60;2.00;;;;;;;4.70;79.66;102123.89;109713;1263;22910;-85
2024/02/18 07:16:25;;;;;;;9.70;2.20;;;;;;;4.71;79.49;102116.21;109901;1268;22555;-84
2024/02/18 07:19:16;;;;;;;14.40;3.50;;;;;;;4.73;79.53;102119.92;109784;1266;22590;-85
2024/02/18 07:22:08;;;;;;;16.00;3.40;;;;;;;4.76;79.42;102125.94;109620;1263;25265;-85
2024/02/18 07:25:00;;;;;;;12.70;2.60;;;;;;;4.79;79.38;102126.02;109750;1266;22555;-85
2024/02/18 07:27:52;;;;;;;12.70;2.00;;;;;;;4.81;79.04;102126.42;109680;1268;22547;-86
2024/02/18 07:30:44;;;;;;;7.00;1.20;;;;;;;4.82;79.10;102125.25;109416;1268;23271;-84
2024/02/18 07:33:36;;;;;;;7.30;1.50;;;;;;;4.85;79.04;102124.30;109783;1266;22521;-84
2024/02/18 07:36:28;;;;;;;6.10;1.20;;;;;;;4.89;79.39;102124.61;109898;1265;22555;-85
2024/02/18 07:39:20;;;;;;;6.80;1.60;;;;;;;4.93;79.20;102125.00;109656;1268;23002;-84
2024/02/18 07:42:11;;;;;;;10.00;1.90;;;;;;;4.96;78.96;102131.02;109756;1265;25312;-84
2024/02/18 07:45:02;;;;;;;7.50;1.40;;;;;;;5.00;79.19;102128.41;109968;1268;23454;-85
2024/02/18 07:47:54;;;;;;;12.70;2.40;;;;;;;5.03;78.94;102129.04;109815;1268;22555;-84
2024/02/18 07:50:45;;;;;;;14.80;2.20;;;;;;;5.07;79.03;102132.28;109690;1268;23211;-85
2024/02/18 07:53:37;;;;;;;9.60;1.90;;;;;;;5.11;78.70;102129.04;109911;1265;22562;-85
2024/02/18 07:56:28;;;;;;;6.60;1.40;;;;;;;5.15;78.91;102125.95;109840;1268;22613;-85
2024/02/18 07:59:21;;;;;;;17.10;4.00;;;;;;;5.19;78.78;102124.69;109947;1260;22596;-84
2024/02/18 08:02:12;;;;;;;11.80;2.00;;;;;;;5.23;78.21;102126.81;109513;1247;22926;-85
2024/02/18 08:05:04;;;;;;;14.60;3.10;;;;;;;5.24;78.79;102126.17;109650;1268;24337;-85
2024/02/18 08:07:55;;;;;;;11.40;2.40;;;;;;;5.28;78.30;102128.08;109539;1269;24254;-85
2024/02/18 08:10:47;;;;;;;9.40;1.80;;;;;;;5.32;78.27;102124.03;109613;1269;22855;-85
2024/02/18 08:13:38;;;;;;;10.40;1.40;;;;;;;5.36;78.25;102124.89;109982;1268;22550;-86
2024/02/18 08:16:31;;;;;;;6.30;1.30;;;;;;;5.40;78.17;102122.28;109758;1268;25233;-85
2024/02/18 08:19:22;;;;;;;6.60;1.50;;;;;;;5.44;77.91;102117.84;109642;1268;22534;-85
2024/02/18 08:22:13;;;;;;;6.40;1.20;;;;;;;5.47;77.76;102117.91;110004;1266;23302;-85
2024/02/18 08:25:09;;;;;;;10.00;1.60;;;;;;;5.51;77.82;102113.87;109941;1263;23322;-85
2024/02/18 08:28:01;;;;;;;6.90;1.00;;;;;;;5.55;77.56;102107.52;110000;1268;22553;-86
2024/02/18 08:30:55;;;;;;;9.20;1.30;;;;;;;5.56;77.37;102109.98;109841;1268;22574;-85
2024/02/18 08:33:48;;;;;;;5.70;1.10;;;;;;;5.62;77.32;102106.64;109735;1267;22799;-85
2024/02/18 08:36:38;;;;;;;6.80;1.40;;;;;;;5.63;77.25;102108.69;109897;1266;24235;-84
2024/02/18 08:39:29;;;;;;;7.30;1.30;;;;;;;5.67;77.09;102109.16;111436;1266;22215;-84
2024/02/18 08:42:20;;;;;;;10.30;1.80;;;;;;;5.70;77.12;102106.54;111451;1259;22391;-85
2024/02/18 08:45:12;;;;;;;12.90;2.50;;;;;;;5.76;77.31;102107.86;111407;1263;22079;-85
2024/02/18 08:48:03;;;;;;;5.90;1.30;;;;;;;5.82;77.18;102111.80;111201;1268;22352;-84
2024/02/18 08:50:55;;;;;;;7.00;1.40;;;;;;;5.86;76.87;102109.99;111471;1266;22156;-84
2024/02/18 08:53:45;;;;;;;9.50;1.50;;;;;;;5.91;76.78;102110.84;111235;1265;22049;-84
2024/02/18 08:56:37;;;;;;;10.60;1.90;;;;;;;5.94;76.61;102103.48;111474;1266;22372;-85
2024/02/18 08:59:28;;;;;;;7.30;1.30;;;;;;;6.00;76.67;102098.21;111483;1263;22105;-84
2024/02/18 09:02:21;;;;;;;7.00;1.30;;;;;;;6.03;76.44;102100.41;111433;1268;22126;-85
2024/02/18 09:05:12;;;;;;;4.20;1.00;;;;;;;6.08;76.28;102103.02;111410;1260;22278;-84
2024/02/18 09:08:03;;;;;;;9.10;1.30;;;;;;;6.11;75.96;102096.66;111466;1268;22284;-85
2024/02/18 09:10:55;;;;;;;6.50;1.50;;;;;;;6.17;76.11;102095.74;111181;1265;22117;-85
2024/02/18 09:13:46;;;;;;;6.10;1.20;;;;;;;6.24;76.17;102086.52;109934;1269;22559;-85
2024/02/18 09:16:37;;;;;;;9.00;1.30;;;;;;;6.31;75.82;102086.09;109107;1268;22619;-84
2024/02/18 09:19:28;;;;;;;6.70;1.30;;;;;;;6.35;75.60;102086.61;109778;1268;22508;-84
2024/02/18 09:22:21;;;;;;;3.70;0.80;;;;;;;6.39;75.42;102090.15;109451;1268;22575;-84
2024/02/18 09:25:13;;;;;;;7.90;1.30;;;;;;;6.44;75.16;102085.93;109383;1268;24196;-84
2024/02/18 09:28:05;;;;;;;7.30;2.00;;;;;;;6.47;75.11;102083.76;109886;1265;23254;-85
2024/02/18 09:30:58;;;;;;;7.90;1.40;;;;;;;6.51;74.69;102086.19;109430;1268;22535;-85
2024/02/18 09:33:49;;;;;;;6.70;1.30;;;;;;;6.51;73.98;102084.13;109847;1266;22769;-85
2024/02/18 09:36:41;;;;;;;6.90;1.20;;;;;;;6.56;74.25;102081.71;109606;1266;22555;-84
2024/02/18 09:39:34;;;;;;;7.10;1.20;;;;;;;6.63;74.22;102079.14;109760;1268;24173;-84
2024/02/18 09:42:26;;;;;;;5.60;1.60;;;;;;;6.68;73.86;102079.27;109866;1266;23276;-86
2024/02/18 09:45:25;;;;;;;7.60;1.60;;;;;;;6.75;73.70;102081.10;111435;1266;22201;-86
2024/02/18 09:48:20;;;;;;;10.30;1.40;;;;;;;6.81;73.21;102074.78;111172;1266;22166;-85
2024/02/18 09:51:13;;;;;;;6.50;1.30;;;;;;;6.86;72.95;102068.17;111119;1268;22231;-84
2024/02/18 09:54:08;;;;;;;8.50;1.20;;;;;;;6.87;72.07;102063.25;111413;1268;22141;-85
2024/02/18 09:57:00;;;;;;;7.50;1.10;;;;;;;6.84;71.79;102057.80;111247;1266;22540;-84
2024/02/18 09:59:52;;;;;;;7.50;1.20;;;;;;;6.85;72.09;102061.12;109919;1268;22728;-84
2024/02/18 10:02:44;;;;;;;6.30;1.20;;;;;;;6.87;71.80;102049.83;109320;1260;24209;-84
2024/02/18 10:05:36;;;;;;;6.40;1.40;;;;;;;6.92;72.36;102046.38;108624;1268;25392;-83
2024/02/18 10:08:28;;;;;;;7.30;1.40;;;;;;;6.97;72.04;102042.34;108152;1268;22553;-84
2024/02/18 10:11:20;;;;;;;10.50;2.10;;;;;;;6.98;71.93;102038.95;108257;1268;25342;-84
2024/02/18 10:14:13;;;;;;;10.40;2.20;;;;;;;7.01;72.19;102031.77;108152;1269;22558;-84
2024/02/18 10:17:05;;;;;;;9.10;1.80;;;;;;;7.00;71.21;102028.77;108375;1268;22618;-83
2024/02/18 10:19:57;;;;;;;15.00;2.10;;;;;;;6.97;71.33;102028.71;108312;1259;22521;-84
2024/02/18 10:22:50;;;;;;;10.00;1.60;;;;;;;6.98;71.38;102027.60;108535;1268;24209;-84
2024/02/18 10:25:43;;;;;;;6.80;1.20;;;;;;;7.04;70.88;102023.89;111367;1266;22101;-85
2024/02/18 10:28:35;;;;;;;10.10;1.60;;;;;;;7.05;70.30;102022.62;111096;1268;22212;-84
2024/02/18 10:31:26;;;;;;;7.50;1.60;;;;;;;7.08;70.41;102020.04;111424;1268;22082;-85
2024/02/18 10:34:19;;;;;;;7.60;1.30;;;;;;;7.17;70.68;102017.08;111406;1266;22651;-85
2024/02/18 10:37:15;;;;;;;8.20;1.50;;;;;;;7.26;70.10;102012.63;111456;1256;22139;-85
2024/02/18 10:40:14;;;;;;;11.00;1.90;;;;;;;7.35;70.26;102008.95;111417;1266;22158;-85
2024/02/18 10:43:10;;;;;;;33.20;9.90;;;;;;;7.45;69.86;102005.50;111407;1268;22263;-85
2024/02/18 10:46:05;;;;;;;15.10;3.20;;;;;;;7.53;69.66;102001.11;111440;1268;22351;-85
2024/02/18 10:49:03;;;;;;;11.10;2.20;;;;;;;7.59;69.39;101999.52;111416;1268;22154;-85
2024/02/18 10:52:05;;;;;;;10.60;1.90;;;;;;;7.60;68.95;101995.08;111425;1269;22136;-85
2024/02/18 10:55:04;;;;;;;10.10;1.70;;;;;;;7.59;69.30;101986.59;111415;1266;22161;-84
2024/02/18 10:58:01;;;;;;;15.50;2.20;;;;;;;7.62;69.38;101974.33;111169;1266;23076;-84
2024/02/18 11:00:55;;;;;;;9.40;1.70;;;;;;;7.65;68.83;101966.98;111412;1266;22088;-84
2024/02/18 11:03:51;;;;;;;8.90;1.70;;;;;;;7.66;68.98;101955.91;111165;1266;22082;-85
2024/02/18 11:06:58;;;;;;;10.50;3.20;;;;;;;7.70;68.58;101946.25;105003;1303;542766;-82
2024/02/18 11:09:51;;;;;;;10.20;3.00;;;;;;;7.68;68.30;101946.83;110865;1266;22298;-84
2024/02/18 11:12:44;;;;;;;10.00;1.90;;;;;;;7.69;68.56;101944.05;110740;1273;22230;-83
2024/02/18 11:15:36;;;;;;;8.80;1.80;;;;;;;7.71;68.43;101937.90;110758;1270;22241;-84
2024/02/18 11:18:28;;;;;;;6.90;1.80;;;;;;;7.73;68.31;101936.05;110752;1264;22369;-83
2024/02/18 11:21:22;;;;;;;12.60;2.60;;;;;;;7.73;67.83;101928.83;110701;1271;193149;-84
2024/02/18 11:24:13;;;;;;;8.70;2.00;;;;;;;7.69;67.53;101922.20;111091;1266;22179;-83
2024/02/18 11:27:05;;;;;;;10.50;2.50;;;;;;;7.70;67.65;101919.32;110089;1269;25742;-83
2024/02/18 11:29:57;;;;;;;6.60;1.90;;;;;;;7.74;67.72;101920.63;108677;1268;25387;-82
2024/02/18 11:32:49;;;;;;;11.00;2.10;;;;;;;7.71;67.47;101915.50;108653;1265;24331;-82
2024/02/18 11:35:40;;;;;;;11.40;3.00;;;;;;;7.72;68.03;101909.45;108610;1256;22536;-85
2024/02/18 11:38:34;;;;;;;16.80;3.40;;;;;;;7.76;67.95;101904.06;108484;1268;25218;-86
2024/02/18 11:41:30;;;;;;;18.60;4.20;;;;;;;7.82;68.08;101902.00;111203;1267;22224;-84
2024/02/18 11:44:21;;;;;;;16.60;4.40;;;;;;;7.85;67.59;101903.85;111299;1260;22115;-84
2024/02/18 11:47:14;;;;;;;14.10;2.70;;;;;;;7.90;67.30;101897.10;111408;1263;22376;-83
2024/02/18 11:50:07;;;;;;;13.30;2.70;;;;;;;7.95;67.99;101888.61;111431;1268;22906;-84
2024/02/18 11:53:00;;;;;;;11.40;2.30;;;;;;;8.02;67.85;101877.20;111312;1268;22864;-84
2024/02/18 11:55:51;;;;;;;10.20;2.20;;;;;;;8.07;67.82;101870.20;111216;1267;22465;-84
2024/02/18 11:58:44;;;;;;;8.60;2.10;;;;;;;8.10;67.18;101869.43;111448;1266;22157;-84
2024/02/18 12:01:37;;;;;;;15.00;2.20;;;;;;;8.11;67.11;101872.13;111372;1268;22167;-84
2024/02/18 12:04:31;;;;;;;7.80;2.10;;;;;;;8.15;66.63;101870.08;111434;1256;22545;-84
2024/02/18 12:07:25;;;;;;;11.80;2.40;;;;;;;8.15;66.79;101860.63;111233;1262;22241;-84
2024/02/18 12:10:19;;;;;;;7.80;2.10;;;;;;;8.18;66.64;101861.52;111405;1257;22227;-84
2024/02/18 12:13:12;;;;;;;9.60;2.00;;;;;;;8.21;66.87;101860.20;111235;1261;22319;-84
2024/02/18 12:16:05;;;;;;;11.40;2.70;;;;;;;8.24;67.05;101855.62;111407;1268;22124;-85
2024/02/18 12:18:57;;;;;;;11.20;2.60;;;;;;;8.22;66.52;101858.52;111222;1267;22997;-85
2024/02/18 12:21:55;;;;;;;9.30;2.20;;;;;;;8.21;66.63;101854.33;111285;1267;22116;-85
2024/02/18 12:24:46;;;;;;;11.90;3.40;;;;;;;8.21;66.79;101853.12;111413;1268;22092;-86
2024/02/18 12:27:38;;;;;;;10.50;3.10;;;;;;;8.23;66.61;101848.55;111392;1263;22101;-85
2024/02/18 12:30:30;;;;;;;12.80;2.30;;;;;;;8.23;66.21;101843.31;110769;1266;22605;-85
2024/02/18 12:33:22;;;;;;;10.20;2.60;;;;;;;8.20;66.05;101842.79;108997;1265;22544;-85
2024/02/18 12:36:14;;;;;;;7.60;2.30;;;;;;;8.20;66.42;101846.55;108650;1268;22585;-86
2024/02/18 12:39:07;;;;;;;9.80;2.50;;;;;;;8.19;65.92;101844.89;108882;1268;25468;-85
2024/02/18 12:41:59;;;;;;;9.90;2.40;;;;;;;8.19;66.28;101833.05;109146;1254;24345;-85
2024/02/18 12:44:50;;;;;;;13.40;3.10;;;;;;;8.21;66.43;101824.52;108107;1267;24193;-85
2024/02/18 12:47:44;;;;;;;15.10;3.40;;;;;;;8.21;66.37;101819.98;108567;1268;22550;-84
2024/02/18 12:50:36;;;;;;;14.10;3.00;;;;;;;8.17;66.19;101819.34;108854;1265;22815;-84
2024/02/18 12:53:28;;;;;;;12.50;2.40;;;;;;;8.17;66.40;101819.90;108737;1263;22553;-85
2024/02/18 12:56:20;;;;;;;9.90;2.20;;;;;;;8.15;66.15;101810.14;111273;1263;22336;-85
2024/02/18 12:59:11;;;;;;;13.50;3.00;;;;;;;8.14;66.12;101800.96;111220;1260;22320;-86
2024/02/18 13:02:03;;;;;;;12.00;2.50;;;;;;;8.12;66.19;101794.54;111464;1268;22214;-85
2024/02/18 13:04:56;;;;;;;10.40;2.60;;;;;;;8.13;66.07;101790.41;111036;1268;22136;-85
2024/02/18 13:07:54;;;;;;;12.90;3.60;;;;;;;8.12;65.69;101786.44;109705;1268;25473;-85
2024/02/18 13:10:45;;;;;;;14.40;3.60;;;;;;;8.13;66.09;101784.11;108695;1247;25590;-81
2024/02/18 13:13:37;;;;;;;13.40;3.40;;;;;;;8.16;65.71;101786.92;108484;1268;23871;-84
2024/02/18 13:16:28;;;;;;;18.60;4.70;;;;;;;8.15;65.77;101779.71;108676;1266;22551;-81
2024/02/18 13:19:20;;;;;;;20.70;5.90;;;;;;;8.14;65.61;101775.04;108630;1268;22764;-82